createdAt,value
2023-07-18T00:02:04.898Z,16.90
2023-07-18T00:05:08.959Z,16.80
2023-07-18T00:08:11.975Z,16.70
2023-07-18T00:11:16.455Z,16.70
2023-07-18T00:14:19.600Z,16.60
2023-07-18T00:17:22.692Z,16.60
2023-07-18T00:20:26.922Z,16.60
2023-07-18T00:23:31.524Z,16.50
2023-07-18T00:26:36.624Z,16.40
2023-07-18T00:29:39.845Z,16.40
2023-07-18T00:32:45.507Z,16.40
2023-07-18T00:35:48.770Z,16.30
2023-07-18T00:38:51.757Z,16.30
2023-07-18T00:41:56.207Z,16.20
2023-07-18T00:44:59.179Z,16.20
2023-07-18T00:48:02.390Z,16.20
2023-07-18T00:51:08.555Z,16.10
2023-07-18T00:54:12.118Z,16.00
2023-07-18T00:57:16.795Z,16.00
2023-07-18T01:00:23.766Z,16.00
2023-07-18T01:03:27.622Z,15.90
2023-07-18T01:06:31.013Z,15.90
2023-07-18T01:09:34.001Z,15.90
2023-07-18T01:12:38.488Z,15.80
2023-07-18T01:15:41.578Z,15.80
2023-07-18T01:18:44.782Z,15.80
2023-07-18T01:21:49.197Z,15.80
2023-07-18T01:24:54.749Z,15.80
2023-07-18T01:28:02.627Z,15.70
2023-07-18T01:31:06.464Z,15.60
2023-07-18T01:34:09.521Z,15.60
2023-07-18T01:37:16.274Z,15.60
2023-07-18T01:40:22.093Z,15.60
2023-07-18T01:43:26.100Z,15.50
2023-07-18T01:46:32.348Z,15.50
2023-07-18T01:49:36.518Z,15.50
2023-07-18T01:52:40.940Z,15.50
2023-07-18T01:55:44.031Z,15.50
2023-07-18T01:58:47.383Z,15.50
2023-07-18T02:01:52.638Z,15.40
2023-07-18T02:04:56.959Z,15.50
2023-07-18T02:08:02.517Z,15.40
2023-07-18T02:11:05.673Z,15.30
2023-07-18T02:14:08.750Z,15.30
2023-07-18T02:17:11.760Z,15.20
2023-07-18T02:20:15.656Z,15.20
2023-07-18T02:23:20.164Z,15.20
2023-07-18T02:26:23.227Z,15.10
2023-07-18T02:29:26.379Z,15.00
2023-07-18T02:32:30.238Z,15.00
2023-07-18T02:35:33.389Z,15.00
2023-07-18T02:38:37.925Z,15.00
2023-07-18T02:41:41.024Z,15.00
2023-07-18T02:44:44.065Z,14.90
2023-07-18T02:47:47.205Z,14.90
2023-07-18T02:50:51.143Z,14.90
2023-07-18T02:53:56.498Z,14.80
2023-07-18T02:57:01.215Z,14.80
2023-07-18T03:00:07.957Z,14.70
2023-07-18T03:03:11.162Z,14.70
2023-07-18T03:06:16.361Z,14.60
2023-07-18T03:09:21.001Z,14.60
2023-07-18T03:12:24.271Z,14.50
2023-07-18T03:15:27.305Z,14.50
2023-07-18T03:18:30.459Z,14.50
2023-07-18T03:21:33.636Z,14.50
2023-07-18T03:24:39.489Z,14.50
2023-07-18T03:27:42.606Z,14.40
2023-07-18T03:30:45.683Z,14.40
2023-07-18T03:33:51.723Z,14.40
2023-07-18T03:36:54.775Z,14.40
2023-07-18T03:39:59.160Z,14.40
2023-07-18T03:43:02.586Z,14.40
2023-07-18T03:46:05.677Z,14.40
2023-07-18T03:49:08.740Z,14.40
2023-07-18T03:52:11.772Z,14.40
2023-07-18T03:55:16.241Z,14.30
2023-07-18T03:58:19.849Z,14.30
2023-07-18T04:01:25.255Z,14.30
2023-07-18T04:04:29.171Z,14.40
2023-07-18T04:07:33.093Z,14.30
2023-07-18T04:10:37.723Z,14.30
2023-07-18T04:13:40.885Z,14.40
2023-07-18T04:16:44.006Z,14.40
2023-07-18T04:19:47.441Z,14.40
2023-07-18T04:22:50.602Z,14.50
2023-07-18T04:26:00.054Z,14.50
2023-07-18T04:29:05.322Z,14.50
2023-07-18T04:32:09.197Z,14.50
2023-07-18T04:35:12.553Z,14.50
2023-07-18T04:38:16.047Z,14.50
2023-07-18T04:41:20.750Z,14.60
2023-07-18T04:44:24.702Z,14.60
2023-07-18T04:47:28.052Z,14.70
2023-07-18T04:50:31.451Z,14.70
2023-07-18T04:53:36.021Z,14.70
2023-07-18T04:56:41.044Z,14.80
2023-07-18T04:59:44.299Z,15.00
2023-07-18T05:02:47.405Z,15.00
2023-07-18T05:05:50.345Z,15.00
2023-07-18T05:08:54.929Z,15.20
2023-07-18T05:11:59.560Z,15.50
2023-07-18T05:15:04.325Z,15.70
2023-07-18T05:18:07.464Z,15.80
2023-07-18T05:21:12.984Z,16.00
2023-07-18T05:24:16.219Z,16.40
2023-07-18T05:27:21.074Z,16.60
2023-07-18T05:30:24.209Z,16.80
2023-07-18T05:33:27.354Z,16.90
2023-07-18T05:36:30.356Z,17.20
2023-07-18T05:39:33.719Z,17.30
2023-07-18T05:42:38.372Z,17.60
2023-07-18T05:45:41.475Z,18.00
2023-07-18T05:48:44.547Z,18.00
2023-07-18T05:51:47.593Z,17.80
2023-07-18T05:54:51.278Z,17.60
2023-07-18T05:57:56.779Z,17.60
2023-07-18T06:00:59.957Z,18.00
2023-07-18T06:04:03.142Z,18.20
2023-07-18T06:07:09.803Z,18.60
2023-07-18T06:10:13.959Z,18.80
2023-07-18T06:13:18.750Z,19.10
2023-07-18T06:16:23.596Z,19.10
2023-07-18T06:19:26.818Z,19.50
2023-07-18T06:22:30.354Z,19.80
2023-07-18T06:25:33.656Z,19.30
2023-07-18T06:28:38.105Z,19.00
2023-07-18T06:31:41.581Z,19.10
2023-07-18T06:34:45.732Z,19.20
2023-07-18T06:37:48.841Z,19.10
2023-07-18T06:40:52.283Z,19.50
2023-07-18T06:43:57.934Z,20.00
2023-07-18T06:47:01.051Z,20.30
2023-07-18T06:50:05.708Z,20.50
2023-07-18T06:53:08.743Z,20.80
2023-07-18T06:56:11.890Z,21.20
2023-07-18T06:59:16.591Z,21.50
2023-07-18T07:02:19.626Z,21.40
2023-07-18T07:05:23.682Z,21.50
2023-07-18T07:08:26.769Z,21.40
2023-07-18T07:11:29.855Z,21.20
2023-07-18T07:14:34.262Z,20.90
2023-07-18T07:17:37.434Z,21.10
2023-07-18T07:20:40.850Z,20.80
2023-07-18T07:23:43.944Z,20.70
2023-07-18T07:26:46.932Z,20.40
2023-07-18T07:29:53.205Z,20.00
2023-07-18T07:32:56.603Z,20.30
2023-07-18T07:36:01.473Z,20.40
2023-07-18T07:39:05.563Z,20.50
2023-07-18T07:42:08.970Z,20.70
2023-07-18T07:45:15.140Z,20.80
2023-07-18T07:48:20.502Z,21.00
2023-07-18T07:51:24.426Z,21.40
2023-07-18T07:54:27.769Z,21.30
2023-07-18T07:57:33.736Z,20.90
2023-07-18T08:00:38.424Z,21.00
2023-07-18T08:03:41.848Z,21.10
2023-07-18T08:06:44.907Z,21.20
2023-07-18T08:09:47.939Z,21.30
2023-07-18T08:12:51.165Z,21.20
2023-07-18T08:15:55.688Z,21.40
2023-07-18T08:18:58.718Z,21.60
2023-07-18T08:22:01.845Z,21.30
2023-07-18T08:25:05.943Z,21.20
2023-07-18T08:28:09.255Z,21.10
2023-07-18T08:31:13.688Z,20.90
2023-07-18T08:34:17.539Z,20.70
2023-07-18T08:37:20.577Z,20.90
2023-07-18T08:40:24.524Z,21.10
2023-07-18T08:43:28.352Z,21.10
2023-07-18T08:46:33.076Z,21.50
2023-07-18T08:49:37.503Z,21.50
2023-07-18T08:52:41.433Z,21.40
2023-07-18T08:55:45.509Z,21.40
2023-07-18T08:58:48.818Z,21.50
2023-07-18T09:01:54.629Z,21.90
2023-07-18T09:04:57.942Z,22.10
2023-07-18T09:08:02.303Z,22.10
2023-07-18T09:11:06.140Z,21.90
2023-07-18T09:14:09.434Z,22.00
2023-07-18T09:17:14.199Z,22.10
2023-07-18T09:20:19.415Z,22.20
2023-07-18T09:23:22.648Z,22.20
2023-07-18T09:26:25.748Z,22.20
2023-07-18T09:29:28.741Z,22.50
2023-07-18T09:32:34.508Z,22.70
2023-07-18T09:35:37.889Z,22.50
2023-07-18T09:38:41.086Z,22.70
2023-07-18T09:41:44.445Z,22.90
2023-07-18T09:44:51.952Z,22.90
2023-07-18T09:47:57.374Z,22.60
2023-07-18T09:51:01.777Z,22.50
2023-07-18T09:54:06.441Z,22.10
2023-07-18T09:57:10.720Z,21.90
2023-07-18T10:00:16.580Z,21.90
2023-07-18T10:03:21.510Z,21.90
2023-07-18T10:06:25.470Z,22.00
2023-07-18T10:09:29.841Z,22.10
2023-07-18T10:12:38.256Z,21.90
2023-07-18T10:16:14.760Z,22.20
2023-07-18T10:19:20.493Z,22.60
2023-07-18T10:22:31.239Z,22.00
2023-07-18T10:25:34.732Z,22.00
2023-07-18T10:28:45.194Z,21.80
2023-07-18T10:31:48.909Z,21.80
2023-07-18T10:34:55.956Z,22.00
2023-07-18T10:38:01.816Z,22.30
2023-07-18T10:41:04.887Z,22.70
2023-07-18T10:44:15.278Z,23.00
2023-07-18T10:47:20.451Z,23.20
2023-07-18T10:50:25.265Z,23.10
2023-07-18T10:53:30.577Z,23.20
2023-07-18T10:56:33.998Z,23.40
2023-07-18T10:59:37.928Z,23.60
2023-07-18T11:02:42.912Z,23.60
2023-07-18T11:05:51.043Z,23.60
2023-07-18T11:08:56.564Z,23.80
2023-07-18T11:12:00.092Z,23.50
2023-07-18T11:15:05.100Z,23.60
2023-07-18T11:18:09.586Z,23.80
2023-07-18T11:21:20.003Z,23.90
2023-07-18T11:24:25.271Z,23.70
2023-07-18T11:27:29.337Z,23.70
2023-07-18T11:30:33.609Z,23.60
2023-07-18T11:33:37.106Z,23.50
2023-07-18T11:36:43.351Z,23.30
2023-07-18T11:39:49.113Z,23.30
2023-07-18T11:42:53.507Z,23.20
2023-07-18T11:45:58.013Z,23.20
2023-07-18T11:49:01.422Z,23.20
2023-07-18T11:52:07.265Z,23.20
2023-07-18T11:55:10.723Z,23.20
2023-07-18T11:58:13.769Z,23.20
2023-07-18T12:01:17.065Z,23.30
2023-07-18T12:04:20.540Z,23.50
2023-07-18T12:07:25.064Z,23.40
2023-07-18T12:10:28.117Z,23.60
2023-07-18T12:13:31.188Z,23.60
2023-07-18T12:16:34.442Z,23.30
2023-07-18T12:19:37.398Z,23.10
2023-07-18T12:22:42.965Z,23.40
2023-07-18T12:25:46.037Z,23.80
2023-07-18T12:28:49.141Z,23.90
2023-07-18T12:31:53.235Z,24.00
2023-07-18T12:34:57.013Z,24.20
2023-07-18T12:38:03.418Z,24.20
2023-07-18T12:41:06.613Z,24.40
2023-07-18T12:44:10.235Z,24.40
2023-07-18T12:47:13.454Z,24.20
2023-07-18T12:50:16.778Z,24.30
2023-07-18T12:53:21.531Z,24.40
2023-07-18T12:56:26.903Z,24.40
2023-07-18T12:59:30.097Z,24.20
2023-07-18T13:02:33.458Z,24.10
2023-07-18T13:05:37.724Z,24.40
2023-07-18T13:08:42.181Z,24.80
2023-07-18T13:11:45.553Z,24.90
2023-07-18T13:14:48.788Z,25.00
2023-07-18T13:17:51.871Z,24.80
2023-07-18T13:20:55.092Z,24.80
2023-07-18T13:23:59.550Z,25.00
2023-07-18T13:27:02.915Z,24.80
2023-07-18T13:30:07.148Z,24.70
2023-07-18T13:33:10.452Z,24.40
2023-07-18T13:36:13.704Z,24.60
2023-07-18T13:39:18.290Z,24.90
2023-07-18T13:42:21.451Z,24.80
2023-07-18T13:45:24.865Z,24.90
2023-07-18T13:48:28.188Z,24.90
2023-07-18T13:51:34.010Z,24.90
2023-07-18T13:54:38.454Z,25.00
2023-07-18T13:57:41.657Z,25.30
2023-07-18T14:00:44.962Z,25.00
2023-07-18T14:03:49.281Z,24.80
2023-07-18T14:06:52.412Z,24.70
2023-07-18T14:09:59.119Z,24.70
2023-07-18T14:13:02.114Z,24.80
2023-07-18T14:16:05.721Z,25.00
2023-07-18T14:19:09.162Z,25.20
2023-07-18T14:22:13.362Z,25.30
2023-07-18T14:25:17.995Z,25.40
2023-07-18T14:28:21.312Z,25.50
2023-07-18T14:31:24.480Z,25.60
2023-07-18T14:34:27.683Z,25.20
2023-07-18T14:37:30.738Z,25.00
2023-07-18T14:40:35.265Z,25.00
2023-07-18T14:43:40.373Z,24.70
2023-07-18T14:46:43.396Z,24.80
2023-07-18T14:49:46.485Z,25.20
2023-07-18T14:52:49.582Z,25.60
2023-07-18T14:55:54.183Z,25.60
2023-07-18T14:58:57.780Z,25.60
2023-07-18T15:02:01.166Z,25.60
2023-07-18T15:05:04.280Z,25.60
2023-07-18T15:08:07.417Z,25.40
2023-07-18T15:11:12.365Z,25.30
2023-07-18T15:14:15.443Z,25.00
2023-07-18T15:17:18.500Z,25.20
2023-07-18T15:20:21.928Z,25.50
2023-07-18T15:23:24.933Z,25.40
2023-07-18T15:26:29.605Z,25.60
2023-07-18T15:29:33.022Z,25.60
2023-07-18T15:32:36.524Z,25.70
2023-07-18T15:35:39.769Z,25.60
2023-07-18T15:38:45.349Z,25.60
2023-07-18T15:41:50.780Z,25.60
2023-07-18T15:44:53.927Z,25.60
2023-07-18T15:47:57.432Z,25.70
2023-07-18T15:51:00.918Z,25.80
2023-07-18T15:54:05.520Z,25.80
2023-07-18T15:57:11.161Z,25.70
2023-07-18T16:00:14.694Z,25.60
2023-07-18T16:03:17.786Z,25.60
2023-07-18T16:06:21.200Z,25.40
2023-07-18T16:09:28.906Z,25.30
2023-07-18T16:12:33.626Z,25.60
2023-07-18T16:15:37.326Z,25.90
2023-07-18T16:18:55.525Z,25.70
2023-07-18T16:21:58.889Z,25.30
2023-07-18T16:25:05.490Z,25.20
2023-07-18T16:28:10.042Z,25.00
2023-07-18T16:31:13.373Z,25.00
2023-07-18T16:34:16.694Z,24.80
2023-07-18T16:37:19.751Z,24.80
2023-07-18T16:40:22.796Z,24.50
2023-07-18T16:43:27.881Z,24.40
2023-07-18T16:46:32.556Z,24.40
2023-07-18T16:49:35.653Z,24.40
2023-07-18T16:52:38.694Z,24.50
2023-07-18T16:55:41.996Z,24.50
2023-07-18T16:58:46.394Z,24.40
2023-07-18T17:01:49.496Z,24.30
2023-07-18T17:04:52.557Z,24.00
2023-07-18T17:07:55.782Z,24.00
2023-07-18T17:10:58.928Z,23.90
2023-07-18T17:14:03.448Z,23.90
2023-07-18T17:17:07.001Z,23.80
2023-07-18T17:23:15.051Z,23.70
2023-07-18T17:26:18.945Z,23.60
2023-07-18T17:29:23.588Z,23.60
2023-07-18T17:32:26.747Z,23.40
2023-07-18T17:35:29.944Z,23.40
2023-07-18T17:38:34.075Z,23.50
2023-07-18T17:41:37.415Z,23.50
2023-07-18T17:44:42.221Z,23.40
2023-07-18T17:47:48.166Z,23.30
2023-07-18T17:50:51.393Z,23.30
2023-07-18T17:53:56.455Z,23.20
2023-07-18T17:57:00.449Z,23.10
2023-07-18T18:00:05.534Z,23.10
2023-07-18T18:03:08.763Z,23.10
2023-07-18T18:06:12.407Z,23.00
2023-07-18T18:09:15.465Z,23.00
2023-07-18T18:12:18.445Z,22.90
2023-07-18T18:15:22.877Z,22.90
2023-07-18T18:18:29.625Z,22.80
2023-07-18T18:21:33.251Z,22.80
2023-07-18T18:24:36.303Z,22.70
2023-07-18T18:27:39.267Z,22.70
2023-07-18T18:30:43.702Z,22.70
2023-07-18T18:33:46.819Z,22.60
2023-07-18T18:36:50.779Z,22.60
2023-07-18T18:39:53.750Z,22.50
2023-07-18T18:42:56.866Z,22.50
2023-07-18T18:46:01.617Z,22.30
2023-07-18T18:49:07.009Z,22.30
2023-07-18T18:52:13.557Z,22.30
2023-07-18T18:55:20.201Z,22.20
2023-07-18T18:58:24.218Z,22.10
2023-07-18T19:01:28.712Z,22.00
2023-07-18T19:04:31.815Z,22.00
2023-07-18T19:07:35.307Z,21.90
2023-07-18T19:10:41.510Z,21.90
2023-07-18T19:13:44.974Z,21.90
2023-07-18T19:16:49.332Z,21.80
2023-07-18T19:19:52.654Z,21.70
2023-07-18T19:22:55.917Z,21.60
2023-07-18T19:25:59.723Z,21.50
2023-07-18T19:29:03.832Z,21.40
2023-07-18T19:32:11.357Z,21.30
2023-07-18T19:35:14.897Z,21.20
2023-07-18T19:38:18.013Z,21.10
2023-07-18T19:41:21.243Z,21.00
2023-07-18T19:44:24.604Z,20.90
2023-07-18T19:47:30.700Z,20.80
2023-07-18T19:50:33.783Z,20.70
2023-07-18T19:53:37.663Z,20.60
2023-07-18T19:56:40.733Z,20.50
2023-07-18T19:59:43.734Z,20.50
2023-07-18T20:02:48.261Z,20.30
2023-07-18T20:05:51.395Z,20.30
2023-07-18T20:08:54.447Z,20.10
2023-07-18T20:11:57.765Z,20.10
2023-07-18T20:15:00.852Z,20.00
2023-07-18T20:18:05.602Z,20.00
2023-07-18T20:21:08.856Z,19.90
2023-07-18T20:24:12.081Z,19.70
2023-07-18T20:27:15.146Z,19.70
2023-07-18T20:30:21.090Z,19.60
2023-07-18T20:33:26.028Z,19.50
2023-07-18T20:36:29.801Z,19.50
2023-07-18T20:39:34.502Z,19.50
2023-07-18T20:42:37.665Z,19.40
2023-07-18T20:45:56.656Z,19.30
2023-07-18T20:49:01.045Z,19.30
2023-07-18T20:52:04.242Z,19.20
2023-07-18T20:55:08.060Z,19.20
2023-07-18T20:58:11.505Z,19.10
2023-07-18T21:01:14.593Z,19.10
2023-07-18T21:04:18.994Z,19.00
2023-07-18T21:07:22.038Z,18.90
2023-07-18T21:10:25.702Z,18.90
2023-07-18T21:13:28.777Z,18.80
2023-07-18T21:16:32.039Z,18.80
2023-07-18T21:19:36.651Z,18.70
2023-07-18T21:22:40.048Z,18.70
2023-07-18T21:25:43.826Z,18.60
2023-07-18T21:29:02.951Z,18.60
2023-07-18T21:32:08.467Z,18.60
2023-07-18T21:35:13.137Z,18.60
2023-07-18T21:38:16.231Z,18.50
2023-07-18T21:41:20.483Z,18.50
2023-07-18T21:44:23.892Z,18.50
2023-07-18T21:47:38.983Z,18.40
2023-07-18T21:50:43.751Z,18.40
2023-07-18T21:53:46.948Z,18.40
2023-07-18T21:56:50.276Z,18.30
2023-07-18T21:59:53.410Z,18.30
2023-07-18T22:02:56.770Z,18.30
2023-07-18T22:06:01.304Z,18.30
2023-07-18T22:09:07.455Z,18.20
2023-07-18T22:12:12.450Z,18.20
2023-07-18T22:15:15.467Z,18.20
2023-07-18T22:18:27.170Z,18.10
2023-07-18T22:21:32.568Z,18.10
2023-07-18T22:24:38.612Z,18.10
2023-07-18T22:27:41.636Z,18.00
2023-07-18T22:30:44.744Z,18.00
2023-07-18T22:33:47.766Z,18.00
2023-07-18T22:36:52.207Z,18.00
2023-07-18T22:39:55.244Z,18.00
2023-07-18T22:42:58.234Z,18.00
2023-07-18T22:46:01.574Z,18.00
2023-07-18T22:49:04.641Z,18.00
2023-07-18T22:52:13.344Z,17.90
2023-07-18T22:55:16.530Z,17.80
2023-07-18T22:58:21.370Z,17.80
2023-07-18T23:01:24.585Z,17.80
2023-07-18T23:04:28.217Z,17.80
2023-07-18T23:07:32.563Z,17.80
2023-07-18T23:10:38.084Z,17.80
2023-07-18T23:13:41.059Z,17.70
2023-07-18T23:16:44.087Z,17.70
2023-07-18T23:19:47.156Z,17.70
2023-07-18T23:22:51.854Z,17.60
2023-07-18T23:25:55.302Z,17.60
2023-07-18T23:28:58.284Z,17.60
2023-07-18T23:32:01.644Z,17.60
2023-07-18T23:35:05.008Z,17.60
2023-07-18T23:38:09.470Z,17.60
2023-07-18T23:41:12.689Z,17.80
2023-07-18T23:44:15.691Z,17.60
2023-07-18T23:47:18.736Z,17.70
2023-07-18T23:50:21.720Z,17.60
2023-07-18T23:53:26.120Z,17.60
2023-07-18T23:56:31.655Z,17.60
2023-07-18T23:59:34.738Z,17.60
